Tiempo atmosférico en la estación meteorológica de Villarrobledo, Albacete (718 m.)



Fecha
DESCASC
Temp. máxima en grados centígrados (hora)
DESCASC
Temp. mínima en grados centígrados (hora)
DESCASC
Temp. media en grados centígrados
DESCASC
Racha de viento máxima en m/sg (hora)
DESCASC
Velocidad máxima media en intervalos de 10 minutos(hora)
DESCASC
Precipitaciones diarias en mm
DESCASC
Precipitaciones de 00:00 a 06:00 en mm
DESCASC
Precipitaciones de 06:00 a 12:00 en mm
DESCASC
Precipitaciones de 12:00 a 18:00 en mm
DESCASC
Precipitaciones de 18:00 a 24:00 en mm
DESCASC
29-03-2020 20.6 (16:20) 0.7 (07:50) 10.7 7.5 (17:50) 4.17 (15:00) 0 0 0 0 0
28-03-2020 15.2 (17:40) 1.3 (07:10) 8.2 6.94 (13:40) 3.89 (04:30) 0.2 0 0.2 0 0
27-03-2020 5.8 (00:00) 0.6 (12:50) 3.2 12.78 (07:50) 6.39 (09:00) 12.6 0 2 8.4 2.2
26-03-2020 18.2 (16:50) 3 (00:00) 10.6 9.44 (14:20) 5.83 (14:50) 0.2 0 0.2 0 0
25-03-2020 18.4 (15:30) 1.6 (00:00) 10 8.61 (16:50) 5.28 (17:00) 4.6 0 0 0 4.6
24-03-2020 11.2 (12:00) 6.1 (00:00) 8.6 17.22 (10:30) 10.56 (10:30) 1.6 0.2 1.4 0 0
23-03-2020 14.3 (16:00) 6.3 (00:00) 10.3 12.22 (18:00) 7.22 (15:20) 2 0.2 1.6 0 0.2
22-03-2020 12.9 (15:00) 5 (05:10) 8.9 11.39 (18:20) 6.67 (18:20) 1.6 0 0 1.6 0
21-03-2020 10.3 (09:40) 4.4 (00:00) 7.4 9.72 (11:10) 6.39 (11:10) 2.6 0 0 2.2 0.4
20-03-2020 15.1 (14:40) 5.9 (00:00) 10.5 12.78 (10:50) 8.06 (12:50) 0 0 0 0 0
19-03-2020 15.2 (14:50) 3.9 (00:00) 9.5 13.89 (16:10) 6.39 (16:00) 0 0 0 0 0
18-03-2020 14.7 (17:20) 6.5 (00:00) 10.6 13.33 (06:50) 7.78 (05:50) 0 0 0 0 0
17-03-2020 13.9 (15:30) 2.1 (00:00) 8 13.89 (13:20) 6.67 (17:20) 0 0 0 0 0
16-03-2020 11.9 (00:00) 2.3 (00:00) 7.1 12.22 (05:50) 8.33 (06:10) 7.6 5.8 1 0.8 0
15-03-2020 22.9 (15:40) 8.9 (00:00) 15.9 9.72 (22:00) 6.39 (22:10) 1 0 0 0.8 0.2
14-03-2020 24.5 (15:10) 5.8 (00:00) 15.2 5 (00:20) 3.06 (23:59) 0 0 0 0 0
13-03-2020 23.5 (16:00) 9.8 (23:59) 16.7 9.17 (19:30) 6.11 (19:30) 0 0 0 0 0
12-03-2020 31.6 (15:50) 7.8 (00:00) 19.7 5.83 (18:10) 3.61 (12:10) 0 0 0 0 0
11-03-2020 31.1 (16:50) 5.2 (00:00) 18.2 4.44 (14:40) 2.5 (23:10) 0 0 0 0 0
10-03-2020 25.2 (15:50) 2.9 (00:00) 14.1 7.5 (13:30) 4.72 (13:30) 0 0 0 0 0
09-03-2020 18.9 (16:00) 4.4 (00:00) 11.6 10 (13:30) 5.83 (14:10) 0 0 0 0 0
08-03-2020 18.8 (16:20) -0.4 (00:00) 9.2 10 (15:40) 6.11 (15:00) 0 0 0 0 0
07-03-2020 17.2 (15:40) -1 (-00:0) 8.1 10.56 (16:50) 6.67 (18:30) 0 0 0 0 0
06-03-2020 13 (15:00) 3.6 (00:00) 8.3 17.22 (14:30) 10.83 (15:20) 0.4 0 0.4 0 0
05-03-2020 15.6 (17:30) 7.9 (00:00) 11.8 17.5 (11:00) 10.83 (15:40) 0 0 0 0 0
04-03-2020 15.2 (15:50) 11 (00:00) 13.1 12.5 (00:50) 7.22 (00:40) 0 0 0 0 0
03-03-2020 12.7 (16:50) 3.6 (00:00) 8.1 19.72 (16:00) 11.94 (16:20) 0 0 0 0 0
02-03-2020 14.5 (13:20) 3.9 (00:00) 9.2 23.33 (08:10) 15.83 (12:00) 1.4 0 1.2 0.2 0
01-03-2020 15.4 (16:20) 8.1 (00:00) 11.8 17.22 (11:30) 11.39 (11:30) 0.2 0.2 0 0 0
29-02-2020 15.6 (14:10) 6.6 (00:00) 11.1 16.11 (23:10) 10.28 (16:40) 0 0 0 0 0

Gráficas

Temp. máximas Temp. mínimas Temp. medias Precipitaciones Rachas de viento máximas Velocidades máximas media en intervalos de 10 minutos

Datos horarios

Fecha y hora oficial Temperatura (ºC) Velocidad del viento (km/h) Dirección del viento Racha (km/h) Dirección de racha Precipitación (mm) Presión (hPa) Tendencia (hPa) Humedad (%)
2020-03-29 23:00:00 9 3 Oeste 9 Sudoeste 0 -- -- 68
2020-03-29 22:00:00 10.1 3 Sudoeste 10 Sudoeste 0 -- -- 65
2020-03-29 21:00:00 12.2 7 Sudoeste 15 Sudoeste 0 -- -- 54
2020-03-29 20:00:00 15.5 9 Sudoeste 23 Oeste 0 -- -- 41
2020-03-29 19:00:00 18.7 7 Oeste 20 Oeste 0 -- -- 32
2020-03-29 18:00:00 18.8 11 Oeste 27 Sudoeste 0 -- -- 33
2020-03-29 17:00:00 19.1 10 Sudoeste 21 Oeste 0 -- -- 32
2020-03-29 16:00:00 19.9 12 Oeste 22 Oeste 0 -- -- 33
2020-03-29 15:00:00 19 15 Noroeste 24 Noroeste 0 -- -- 33
2020-03-29 14:00:00 17.9 9 Oeste 21 Oeste 0 -- -- 36
2020-03-29 13:00:00 16 9 Oeste 17 Oeste 0 -- -- 41
2020-03-29 12:00:00 13.7 10 Oeste 16 Oeste 0 -- -- 52
2020-03-29 11:00:00 11.7 9 Sudoeste 15 Sudoeste 0 -- -- 59
2020-03-29 10:00:00 7.9 4 Sudoeste 8 Sur 0 -- -- 70
2020-03-29 09:00:00 1.6 2 Sudoeste 8 Sudoeste 0 -- -- 88
2020-03-29 08:00:00 0.8 2 Sur 4 Sur 0 -- -- 90
2020-03-29 07:00:00 1.9 2 Este 6 Este 0 -- -- 88
2020-03-29 06:00:00 1.5 3 Nordeste 10 Este 0 -- -- 88
2020-03-29 05:00:00 2 6 Sudeste 9 Este 0 -- -- 89
2020-03-29 03:00:00 2.3 0 Calma 7 Sudeste 0 -- -- 87
2020-03-29 01:00:00 3 0 Calma 4 Sur 0 -- -- 85
2020-03-29 00:00:00 3.8 2 Sur 6 Sur 0 -- -- 83
2020-03-28 23:00:00 4.4 2 Sur 6 Sudoeste 0 -- -- 82
2020-03-28 22:00:00 6 2 Sur 6 Sur 0 -- -- 78
2020-03-28 21:00:00 7.1 3 Sur 6 Sudeste 0 -- -- 74
2020-03-28 20:00:00 9 4 Sudeste 13 Sudeste 0 -- -- 64
2020-03-28 19:00:00 12.2 5 Sudeste 16 Este 0 -- -- 55
2020-03-28 18:00:00 14.3 8 Este 19 Nordeste 0 -- -- 46
2020-03-28 17:00:00 14.6 7 Sudeste 18 Sudeste 0 -- -- 43
2020-03-28 16:00:00 13.7 11 Este 22 Este 0 -- -- 46
2020-03-28 15:00:00 13.1 12 Este 24 Sudeste 0 -- -- 50
2020-03-28 14:00:00 13.5 13 Nordeste 25 Nordeste 0 -- -- 49
2020-03-28 13:00:00 12.3 8 Este 24 Sudeste 0 -- -- 53
2020-03-28 12:00:00 10.4 9 Este 23 Este 0 -- -- 63
2020-03-28 11:00:00 8.8 11 Este 21 Este 0.2 -- -- 69
2020-03-28 10:00:00 7.2 10 Este 21 Este 0 -- -- 78
2020-03-28 09:00:00 5.5 13 Este 22 Nordeste 0 -- -- 85
2020-03-28 08:00:00 2 8 Nordeste 12 Este 0 -- -- 93
2020-03-28 07:00:00 1.4 5 Nordeste 14 Este 0 -- -- 92
2020-03-28 06:00:00 2.6 5 Este 12 Sudeste 0 -- -- 92
2020-03-28 05:00:00 3.5 5 Este 24 Sudeste 0 -- -- 94
2020-03-28 04:00:00 3.8 7 Este 22 Este 0 -- -- 93
2020-03-28 03:00:00 4 11 Nordeste 17 Este 0 -- -- 93
2020-03-28 02:00:00 3.7 10 Nordeste 22 Este 0 -- -- 93
2020-03-28 01:00:00 4.1 10 Este 24 Este 0 -- -- 93
2020-03-28 00:00:00 3.8 14 Este 24 Este 1.2 -- -- 93
2020-03-27 23:00:00 3.4 10 Este 26 Este 0.4 -- -- 92
2020-03-27 22:00:00 3.1 15 Este 31 Este 0.2 -- -- 92
2020-03-27 21:00:00 3 19 Este 34 Este 0 -- -- 91
2020-03-27 20:00:00 3 12 Este 26 Este 0.2 -- -- 91
2020-03-27 19:00:00 2.8 6 Este 22 Este 0.2 -- -- 91
2020-03-27 18:00:00 3 10 Este 29 Este 0 -- -- 90
2020-03-27 17:00:00 3.3 12 Este 37 Este 0.2 -- -- 91
2020-03-27 16:00:00 3.8 15 Este 34 Este 0 -- -- 92
2020-03-27 15:00:00 3 20 Este 36 Este 2.4 -- -- 94
2020-03-27 14:00:00 1.1 17 Este 33 Este 3.6 -- -- 93
2020-03-27 13:00:00 0.7 17 Este 30 Nordeste 2.2 -- -- 92
2020-03-27 12:00:00 1.6 13 Este 37 Este 1.6 -- -- 90
2020-03-27 11:00:00 3.1 21 Este 41 Este 0 -- -- 89
2020-03-27 10:00:00 3.1 20 Este 42 Este 0.4 -- -- 89
2020-03-27 09:00:00 3.7 23 Este 41 Nordeste 0 -- -- 84
2020-03-27 08:00:00 4.1 19 Este 46 Este 0 -- -- 80
2020-03-27 07:00:00 3.9 14 Este 35 Este 0 -- -- 79
2020-03-27 06:00:00 4 18 Este 34 Este 0 -- -- 87
2020-03-27 05:00:00 4.5 12 Este 26 Este 0 -- -- 83
2020-03-27 04:00:00 4.6 12 Este 31 Nordeste 0 -- -- 82
2020-03-27 03:00:00 4.8 13 Este 30 Sudeste 0 -- -- 78
2020-03-27 02:00:00 4.5 5 Este 26 Nordeste 0 -- -- 79
2020-03-27 01:00:00 5.2 13 Este 25 Este 0 -- -- 79
2020-03-27 00:00:00 5.8 10 Este 27 Este 0 -- -- 74
2020-03-26 23:00:00 7.2 16 Este 29 Este 0 -- -- 65
2020-03-26 22:00:00 8.2 2 Este 13 Este 0 -- -- 58
2020-03-26 21:00:00 8.7 7 Este 22 Norte 0 -- -- 55
2020-03-26 20:00:00 10.7 8 Norte 19 Norte 0 -- -- 39
2020-03-26 19:00:00 14.9 10 Noroeste 25 Noroeste 0 -- -- 26
2020-03-26 18:00:00 17.2 13 Noroeste 28 Noroeste 0 -- -- 24
2020-03-26 17:00:00 18.2 13 Noroeste 27 Norte 0 -- -- 23
2020-03-26 16:00:00 17.2 12 Noroeste 28 Oeste 0 -- -- 26
2020-03-26 15:00:00 15.8 19 Noroeste 34 Noroeste 0 -- -- 31
2020-03-26 14:00:00 16.3 19 Noroeste 32 Oeste 0 -- -- 31
2020-03-26 13:00:00 15.2 14 Noroeste 28 Noroeste 0 -- -- 37
2020-03-26 12:00:00 13.1 10 Oeste 27 Oeste 0 -- -- 46
2020-03-26 11:00:00 11 9 Oeste 17 Oeste 0 -- -- 68
2020-03-26 10:00:00 7.7 7 Noroeste 13 Noroeste 0 -- -- 92
2020-03-26 09:00:00 3.9 9 Oeste 21 Oeste 0 -- -- 95
2020-03-26 08:00:00 3.4 13 Oeste 19 Oeste 0.2 -- -- 95
2020-03-26 07:00:00 3.6 13 Oeste 21 Oeste 0 -- -- 94
2020-03-26 06:00:00 4.3 12 Oeste 19 Oeste 0 -- -- 94
2020-03-26 05:00:00 4.1 6 Oeste 12 Noroeste 0 -- -- 94
2020-03-26 04:00:00 3.2 0 Calma 5 Nordeste 0 -- -- 93
2020-03-26 03:00:00 4.8 4 Noroeste 10 Oeste 0 -- -- 93
2020-03-26 02:00:00 4.9 0 Calma 6 Sudeste 0 -- -- 92
2020-03-26 01:00:00 5.6 0 Calma 11 Este 0 -- -- 89
2020-03-26 00:00:00 6.6 6 Sudeste 22 Sudeste 1.6 -- -- 86
2020-03-25 23:00:00 7.2 11 Nordeste 18 Nordeste 3 -- -- 86
2020-03-25 22:00:00 7.8 12 Sudeste 23 Sudeste 0 -- -- 76
2020-03-25 21:00:00 8.1 9 Este 31 Sudeste 0 -- -- 77
2020-03-25 20:00:00 9.1 14 Sudeste 27 Sudeste 0 -- -- 69
2020-03-25 19:00:00 15 8 Noroeste 22 Oeste 0 -- -- 36
2020-03-25 18:00:00 16.2 11 Oeste 26 Oeste 0 -- -- 35
2020-03-25 17:00:00 15.6 19 Oeste 31 Oeste 0 -- -- 39
2020-03-25 16:00:00 17.2 11 Oeste 21 Noroeste 0 -- -- 40
2020-03-25 15:00:00 14.9 4 Este 19 Noroeste 0 -- -- 45
2020-03-25 14:00:00 14.7 7 Nordeste 15 Noroeste 0 -- -- 46
2020-03-25 13:00:00 14.7 5 Nordeste 18 Nordeste 0 -- -- 48
2020-03-25 12:00:00 12.9 8 Este 21 Este 0 -- -- 55
2020-03-25 11:00:00 11.3 8 Este 20 Nordeste 0 -- -- 62
2020-03-25 10:00:00 11.5 8 Nordeste 15 Nordeste 0 -- -- 63
2020-03-25 09:00:00 7.1 5 Sudeste 12 Sudeste 0 -- -- 89
2020-03-25 08:00:00 2.4 3 Nordeste 12 Este 0 -- -- 94
2020-03-25 07:00:00 2.5 5 Sudeste 14 Sudeste 0 -- -- 94
2020-03-25 06:00:00 2.3 7 Sudeste 15 Sudeste 0 -- -- 93
2020-03-25 05:00:00 2.7 6 Este 15 Este 0 -- -- 92
2020-03-25 04:00:00 3 5 Este 12 Sudeste 0 -- -- 91
2020-03-25 03:00:00 4 3 Sudeste 13 Este 0 -- -- 89
2020-03-25 02:00:00 5.6 7 Este 22 Sudeste 0 -- -- 86
2020-03-25 01:00:00 6.1 9 Este 26 Sudeste 0 -- -- 87
2020-03-25 00:00:00 6.1 10 Este 29 Sudeste 0 -- -- 85
2020-03-24 23:00:00 6.6 8 Este 19 Nordeste 0 -- -- 86
2020-03-24 22:00:00 7.5 12 Este 30 Este 0 -- -- 83
2020-03-24 21:00:00 7.9 16 Este 34 Este 0 -- -- 80
2020-03-24 20:00:00 8.3 16 Este 30 Este 0 -- -- 80
2020-03-24 19:00:00 8.6 20 Nordeste 36 Nordeste 0 -- -- 79
2020-03-24 18:00:00 9 19 Este 47 Este 0 -- -- 77
2020-03-24 17:00:00 9.4 31 Este 48 Este 0 -- -- 75
2020-03-24 16:00:00 8.8 27 Este 47 Nordeste 0 -- -- 81
2020-03-24 15:00:00 9.4 26 Este 48 Nordeste 0 -- -- 78
2020-03-24 14:00:00 10.8 23 Este 52 Este 0 -- -- 72
2020-03-24 13:00:00 11.1 32 Este 54 Este 0 -- -- 70
2020-03-24 12:00:00 11.2 30 Este 61 Nordeste 0 -- -- 72
2020-03-24 11:00:00 9.8 34 Este 62 Este 0 -- -- 78
2020-03-24 10:00:00 8.5 30 Este 53 Nordeste 0 -- -- 87
2020-03-24 09:00:00 8.9 24 Este 48 Este 0.2 -- -- 89
2020-03-24 08:00:00 8.1 21 Este 36 Nordeste 0.4 -- -- 92
2020-03-24 07:00:00 7.9 15 Este 29 Este 0.8 -- -- 92
2020-03-24 06:00:00 8.1 10 Este 25 Nordeste 0.2 -- -- 92
2020-03-24 05:00:00 8.3 13 Este 33 Este 0 -- -- 90
2020-03-24 04:00:00 8.9 20 Este 36 Este 0 -- -- 88
2020-03-24 03:00:00 8.6 17 Nordeste 27 Nordeste 0 -- -- 91
2020-03-24 02:00:00 8.8 16 Este 32 Nordeste 0 -- -- 89
2020-03-24 01:00:00 8.8 18 Este 34 Nordeste 0 -- -- 88
2020-03-24 00:00:00 8.7 18 Este 38 Este 0 -- -- 89
2020-03-23 23:00:00 8.8 20 Este 36 Este 0.2 -- -- 89
2020-03-23 22:00:00 9.4 21 Este 39 Este 0 -- -- 85
2020-03-23 21:00:00 9.7 17 Este 30 Nordeste 0 -- -- 84
2020-03-23 20:00:00 9.8 17 Este 31 Nordeste 0 -- -- 83
2020-03-23 19:00:00 10.1 18 Este 39 Nordeste 0 -- -- 81
2020-03-23 18:00:00 11.4 20 Este 44 Nordeste 0 -- -- 70
2020-03-23 17:00:00 13.6 16 Este 35 Este 0 -- -- 59
2020-03-23 16:00:00 14.3 15 Este 42 Sudeste 0 -- -- 60
2020-03-23 15:00:00 13.6 21 Este 42 Este 0 -- -- 65
2020-03-23 14:00:00 14.1 17 Este 38 Este 0 -- -- 62
2020-03-23 13:00:00 13.2 17 Sudeste 33 Sudeste 0 -- -- 58
2020-03-23 12:00:00 12.8 13 Este 28 Este 0 -- -- 65
2020-03-23 11:00:00 11 14 Sudeste 32 Sudeste 0 -- -- 75
2020-03-23 10:00:00 9.9 12 Este 22 Este 0 -- -- 83
2020-03-23 09:00:00 7.4 11 Este 23 Este 0.6 -- -- 94
2020-03-23 08:00:00 7.6 6 Este 17 Este 0.6 -- -- 94
2020-03-23 07:00:00 7.4 6 Este 17 Este 0.4 -- -- 94
2020-03-23 06:00:00 7 8 Este 16 Este 0 -- -- 94
2020-03-23 05:00:00 7 8 Este 18 Nordeste 0 -- -- 94
2020-03-23 04:00:00 7.1 9 Este 14 Este 0 -- -- 93
2020-03-23 03:00:00 7 10 Este 18 Este 0.2 -- -- 93
2020-03-23 02:00:00 7.2 9 Este 19 Nordeste 0 -- -- 92
2020-03-23 01:00:00 7.2 7 Este 19 Este 0 -- -- 93
2020-03-23 00:00:00 6.4 4 Este 15 Este 0 -- -- 92
2020-03-22 23:00:00 7.1 8 Este 14 Nordeste 0 -- -- 92
2020-03-22 22:00:00 7.5 5 Sudeste 13 Sudeste 0 -- -- 92
2020-03-22 21:00:00 7.4 5 Este 24 Este 0 -- -- 91
2020-03-22 20:00:00 8.1 14 Este 31 Este 0 -- -- 87
2020-03-22 19:00:00 9.3 18 Este 41 Nordeste 0 -- -- 83
2020-03-22 18:00:00 10.1 23 Nordeste 35 Nordeste 0.4 -- -- 83
2020-03-22 17:00:00 10.3 16 Nordeste 35 Nordeste 0 -- -- 78
2020-03-22 16:00:00 9.5 23 Nordeste 36 Este 0.8 -- -- 81
2020-03-22 15:00:00 12.9 15 Nordeste 37 Nordeste 0.4 -- -- 67
2020-03-22 14:00:00 11.9 14 Este 25 Este 0 -- -- 66
2020-03-22 13:00:00 10.2 10 Este 22 Este 0 -- -- 76
2020-03-22 12:00:00 9.6 9 Este 19 Este 0 -- -- 77
2020-03-22 11:00:00 8.1 12 Este 19 Este 0 -- -- 82
2020-03-22 10:00:00 6.2 9 Este 19 Este 0 -- -- 92
2020-03-22 09:00:00 5.3 9 Este 17 Nordeste 0 -- -- 93
2020-03-22 08:00:00 5.2 5 Este 14 Sudeste 0 -- -- 93
2020-03-22 07:00:00 5.2 5 Este 19 Nordeste 0 -- -- 93
2020-03-22 06:00:00 5.2 8 Este 17 Este 0 -- -- 93
2020-03-22 05:00:00 5.1 8 Este 15 Nordeste 0 -- -- 93
2020-03-22 04:00:00 5.2 7 Este 17 Este 0 -- -- 93
2020-03-22 03:00:00 5.2 8 Este 19 Este 0 -- -- 93
2020-03-22 02:00:00 5.5 10 Este 17 Este 0 -- -- 93
2020-03-22 01:00:00 5.4 9 Sudeste 21 Sudeste 0 -- -- 93
2020-03-22 00:00:00 5.1 6 Este 27 Este 0 -- -- 93
2020-03-21 23:00:00 4.4 10 Sudeste 16 Este 0 -- -- 92
2020-03-21 22:00:00 4.8 9 Este 14 Nordeste 0 -- -- 90
2020-03-21 21:00:00 5.5 5 Este 14 Este 0 -- -- 89
2020-03-21 20:00:00 6.3 4 Este 16 Sudeste 0 -- -- 87
2020-03-21 19:00:00 6.4 8 Sudeste 16 Sudeste 0.4 -- -- 87
2020-03-21 18:00:00 7.1 6 Sudeste 13 Sudeste 1.2 -- -- 84
2020-03-21 17:00:00 8 0 Calma 14 Sudoeste 0.6 -- -- 77
2020-03-21 16:00:00 8.9 0 Calma 9 Noroeste 0 -- -- 80
2020-03-21 15:00:00 8.8 8 Oeste 15 Oeste 0 -- -- 86
2020-03-21 14:00:00 8.4 6 Noroeste 16 Sudoeste 0.4 -- -- 87
2020-03-21 13:00:00 8.5 10 Sudoeste 21 Sudoeste 0 -- -- 76
2020-03-21 12:00:00 8.5 13 Sudoeste 35 Oeste 0 -- -- 76
2020-03-21 11:00:00 8.1 18 Sudoeste 33 Sudoeste 0 -- -- 80
2020-03-21 10:00:00 10.1 15 Sudeste 25 Este 0 -- -- 78
2020-03-21 09:00:00 9.2 10 Este 26 Sudeste 0 -- -- 84
2020-03-21 08:00:00 8.1 9 Este 23 Este 0 -- -- 89
2020-03-21 07:00:00 7.9 10 Este 26 Este 0 -- -- 89
2020-03-21 06:00:00 8 10 Este 25 Este 0 -- -- 89
2020-03-21 05:00:00 7.9 11 Este 26 Nordeste 0 -- -- 89
2020-03-21 04:00:00 7.7 13 Este 29 Este 0 -- -- 89
2020-03-21 03:00:00 7.3 16 Este 29 Nordeste 0 -- -- 89
2020-03-21 02:00:00 7.8 11 Este 27 Nordeste 0 -- -- 87
2020-03-21 01:00:00 7.9 10 Este 28 Este 0 -- -- 85
2020-03-21 00:00:00 8 12 Este 30 Nordeste 0 -- -- 84
2020-03-20 23:00:00 7.7 12 Este 31 Este 0 -- -- 84
2020-03-20 22:00:00 7.6 12 Este 29 Este 0 -- -- 83
2020-03-20 21:00:00 7.9 12 Este 32 Nordeste 0 -- -- 82
2020-03-20 20:00:00 8.6 16 Este 40 Nordeste 0 -- -- 83
2020-03-20 19:00:00 10.3 22 Este 37 Este 0 -- -- 77
2020-03-20 18:00:00 11.5 20 Este 43 Este 0 -- -- 72
2020-03-20 17:00:00 13 19 Este 45 Nordeste 0 -- -- 66
2020-03-20 16:00:00 13.7 20 Este 41 Este 0 -- -- 64
2020-03-20 15:00:00 14.6 19 Este 42 Sudeste 0 -- -- 60
2020-03-20 14:00:00 14.2 21 Este 45 Sudeste 0 -- -- 53
2020-03-20 13:00:00 13 23 Sudeste 44 Sudeste 0 -- -- 55
2020-03-20 12:00:00 12.6 18 Este 45 Sudeste 0 -- -- 60
2020-03-20 11:00:00 11.2 28 Sudeste 46 Sudeste 0 -- -- 64
2020-03-20 10:00:00 10.2 15 Este 31 Sudeste 0 -- -- 78
2020-03-20 09:00:00 8.4 11 Este 22 Este 0 -- -- 88
2020-03-20 08:00:00 7.1 8 Este 22 Este 0 -- -- 92
2020-03-20 07:00:00 6 8 Este 22 Nordeste 0 -- -- 91
2020-03-20 06:00:00 6.1 10 Este 27 Este 0 -- -- 90
2020-03-20 05:00:00 6.8 12 Este 27 Este 0 -- -- 87
2020-03-20 04:00:00 7.7 13 Este 27 Este 0 -- -- 84
2020-03-20 03:00:00 8.1 13 Este 28 Este 0 -- -- 79
2020-03-20 02:00:00 8.9 10 Este 26 Este 0 -- -- 80
2020-03-20 01:00:00 9 12 Este 27 Este 0 -- -- 84
2020-03-20 00:00:00 9.2 13 Este 29 Nordeste 0 -- -- 84
2020-03-19 23:00:00 9.2 13 Este 33 Nordeste 0 -- -- 85
2020-03-19 22:00:00 9.5 14 Este 33 Este 0 -- -- 84
2020-03-19 21:00:00 9.8 16 Este 32 Este 0 -- -- 82
2020-03-19 20:00:00 10.3 16 Este 36 Este 0 -- -- 78
2020-03-19 19:00:00 11.1 17 Este 35 Este 0 -- -- 74
2020-03-19 18:00:00 12.4 13 Este 39 Sudeste 0 -- -- 67
2020-03-19 17:00:00 13.1 16 Este 50 Sudeste 0 -- -- 61
2020-03-19 16:00:00 14 23 Sudeste 40 Nordeste 0 -- -- 57
2020-03-19 15:00:00 14.9 21 Este 40 Este 0 -- -- 54
2020-03-19 14:00:00 14.6 17 Este 38 Este 0 -- -- 54
2020-03-19 13:00:00 13.7 16 Este 39 Sudeste 0 -- -- 58
2020-03-19 12:00:00 11.6 19 Sudeste 38 Este 0 -- -- 69
2020-03-19 11:00:00 11 14 Este 32 Este 0 -- -- 73
2020-03-19 10:00:00 8.9 12 Este 28 Este 0 -- -- 83
2020-03-19 09:00:00 7.2 10 Este 28 Este 0 -- -- 91
2020-03-19 08:00:00 5.4 6 Este 17 Sudeste 0 -- -- 93
2020-03-19 07:00:00 4.9 5 Este 20 Este 0 -- -- 92
2020-03-19 06:00:00 4.5 6 Este 17 Este 0 -- -- 92
2020-03-19 05:00:00 4 11 Este 19 Este 0 -- -- 90
2020-03-19 04:00:00 4.7 7 Este 23 Este 0 -- -- 89
2020-03-19 03:00:00 5.1 15 Este 26 Este 0 -- -- 88
2020-03-19 02:00:00 5.6 11 Este 31 Este 0 -- -- 86
2020-03-19 01:00:00 6 9 Este 27 Este 0 -- -- 86
2020-03-19 00:00:00 6.5 13 Este 29 Este 0 -- -- 84
2020-03-18 23:00:00 7.4 9 Este 21 Este 0 -- -- 78
2020-03-18 22:00:00 8.3 9 Este 18 Este 0 -- -- 68
2020-03-18 21:00:00 9.2 9 Este 23 Nordeste 0 -- -- 60
2020-03-18 20:00:00 10.5 13 Este 29 Este 0 -- -- 53
2020-03-18 19:00:00 12.2 16 Este 33 Este 0 -- -- 55
2020-03-18 18:00:00 14.1 14 Este 38 Este 0 -- -- 49
2020-03-18 17:00:00 14.4 23 Este 40 Este 0 -- -- 54
2020-03-18 16:00:00 12.9 14 Este 34 Este 0 -- -- 60
2020-03-18 15:00:00 12.3 15 Este 37 Sudeste 0 -- -- 63
2020-03-18 14:00:00 12.4 16 Este 42 Este 0 -- -- 60
2020-03-18 13:00:00 12 19 Este 45 Este 0 -- -- 68
2020-03-18 12:00:00 12.2 21 Este 40 Este 0 -- -- 70
2020-03-18 11:00:00 11.6 18 Este 40 Este 0 -- -- 74
2020-03-18 10:00:00 10.3 24 Este 46 Este 0 -- -- 79
2020-03-18 09:00:00 9.3 21 Este 42 Este 0 -- -- 82
2020-03-18 08:00:00 8.9 23 Este 45 Este 0 -- -- 83
2020-03-18 07:00:00 8.9 24 Este 48 Nordeste 0 -- -- 82
2020-03-18 06:00:00 8.7 27 Este 44 Nordeste 0 -- -- 86
2020-03-18 05:00:00 8.8 19 Este 43 Este 0 -- -- 85
2020-03-18 04:00:00 9.2 17 Este 45 Este 0 -- -- 81
2020-03-18 03:00:00 9.2 23 Este 42 Nordeste 0 -- -- 82
2020-03-18 02:00:00 9.5 26 Este 46 Este 0 -- -- 80
2020-03-18 01:00:00 9.7 23 Este 42 Este 0 -- -- 80
2020-03-18 00:00:00 10.2 21 Este 44 Este 0 -- -- 77
2020-03-17 23:00:00 10.4 16 Este 46 Este 0 -- -- 80
2020-03-17 22:00:00 10.8 13 Este 37 Este 0 -- -- 83
2020-03-17 21:00:00 11.2 20 Este 45 Este 0 -- -- 82
2020-03-17 20:00:00 11.6 23 Este 40 Este 0 -- -- 81
2020-03-17 19:00:00 11.8 19 Este 36 Este 0 -- -- 84
2020-03-17 18:00:00 11.9 19 Este 37 Este 0 -- -- 82
2020-03-17 17:00:00 12.7 19 Este 36 Nordeste 0 -- -- 78
2020-03-17 16:00:00 13.5 17 Este 37 Este 0 -- -- 73
2020-03-17 15:00:00 13.5 17 Este 37 Este 0 -- -- 70
2020-03-17 14:00:00 13.2 19 Este 50 Este 0 -- -- 69
2020-03-17 13:00:00 13.7 20 Este 45 Este 0 -- -- 63
2020-03-17 12:00:00 12.5 19 Este 38 Sudeste 0 -- -- 63
2020-03-17 11:00:00 10.4 13 Este 29 Este 0 -- -- 72
2020-03-17 10:00:00 7.4 8 Este 20 Sudeste 0 -- -- 91
2020-03-17 09:00:00 5.4 11 Sudeste 20 Este 0 -- -- 92
2020-03-17 08:00:00 3.7 0 Calma 13 Este 0 -- -- 93
2020-03-17 07:00:00 3 7 Este 16 Este 0 -- -- 92
2020-03-17 06:00:00 2.9 7 Este 18 Este 0 -- -- 92
2020-03-17 05:00:00 2.8 6 Este 16 Este 0 -- -- 92
2020-03-17 04:00:00 2.2 3 Este 10 Este 0 -- -- 92
2020-03-17 03:00:00 2.4 4 Este 16 Este 0 -- -- 91
2020-03-17 02:00:00 2.8 8 Este 22 Este 0 -- -- 90
2020-03-17 01:00:00 2.9 11 Este 23 Este 0 -- -- 91
2020-03-17 00:00:00 2.3 9 Nordeste 14 Este 0 -- -- 90
2020-03-16 23:00:00 2.8 5 Sudeste 14 Este 0 -- -- 89
2020-03-16 22:00:00 3.5 10 Sudeste 17 Sudeste 0 -- -- 87
2020-03-16 21:00:00 4.2 5 Este 13 Este 0 -- -- 86
2020-03-16 20:00:00 4.6 6 Este 15 Este 0 -- -- 85
2020-03-16 19:00:00 6.9 4 Sudeste 9 Sudoeste 0 -- -- 66
2020-03-16 18:00:00 6.9 3 Sur 16 Sudeste 0.2 -- -- 66
2020-03-16 17:00:00 8 5 Sudeste 14 Sudeste 0 -- -- 63
2020-03-16 16:00:00 6 6 Noroeste 18 Sudoeste 0.4 -- -- 77
2020-03-16 15:00:00 8.5 8 Oeste 20 Noroeste 0 -- -- 59
2020-03-16 14:00:00 7.3 11 Noroeste 26 Oeste 0.2 -- -- 65
2020-03-16 13:00:00 6.9 14 Oeste 31 Oeste 0 -- -- 66
2020-03-16 12:00:00 7.7 20 Oeste 33 Sudoeste 0 -- -- 68
2020-03-16 11:00:00 4.8 15 Sudoeste 31 Oeste 0 -- -- 75
2020-03-16 10:00:00 3.9 21 Sudoeste 35 Sudoeste 0 -- -- 80
2020-03-16 09:00:00 3.3 13 Sudoeste 27 Sur 0 -- -- 86
2020-03-16 08:00:00 2.8 7 Sudoeste 30 Sudoeste 0.8 -- -- 88
2020-03-16 07:00:00 4.2 22 Oeste 43 Oeste 0.2 -- -- 83
2020-03-16 06:00:00 6.5 29 Oeste 44 Sudoeste 0.8 -- -- 86
2020-03-16 05:00:00 8 12 Oeste 38 Sudoeste 3 -- -- 89
2020-03-16 04:00:00 10.1 6 Sudeste 22 Este 1.6 -- -- 86
2020-03-16 03:00:00 10.2 6 Este 15 Sudeste 0 -- -- 85
2020-03-16 02:00:00 10.2 4 Este 10 Sudeste 0.4 -- -- 85
2020-03-16 01:00:00 10.8 3 Sudoeste 9 Oeste 0 -- -- 79
2020-03-16 00:00:00 11.9 9 Oeste 21 Oeste 0 -- -- 72
2020-03-15 23:00:00 12.3 8 Oeste 34 Oeste 0 -- -- 71
2020-03-15 22:00:00 12.8 14 Sudoeste 35 Oeste 0 -- -- 67
2020-03-15 21:00:00 12.2 9 Nordeste 22 Este 0 -- -- 76
2020-03-15 20:00:00 13.3 9 Este 26 Nordeste 0 -- -- 68
2020-03-15 19:00:00 15.8 5 Noroeste 16 Norte 0.2 -- -- 58
2020-03-15 18:00:00 15.4 13 Sudoeste 34 Sudoeste 0.8 -- -- 60
2020-03-15 17:00:00 20.4 16 Sudoeste 26 Sudoeste 0 -- -- 41
2020-03-15 16:00:00 22.5 10 Sudoeste 26 Sudoeste 0 -- -- 37
2020-03-15 15:00:00 22.4 7 Sudeste 21 Sudeste 0 -- -- 42
2020-03-15 14:00:00 21.7 7 Este 17 Este 0 -- -- 45
2020-03-15 13:00:00 19.3 9 Este 19 Nordeste 0 -- -- 53
2020-03-15 12:00:00 18.6 12 Este 24 Nordeste 0 -- -- 56
2020-03-15 11:00:00 16.3 10 Este 22 Este 0 -- -- 64
2020-03-15 10:00:00 13.7 9 Este 24 Este 0 -- -- 74
2020-03-15 09:00:00 10 7 Este 21 Este 0 -- -- 91
2020-03-15 08:00:00 9.5 11 Este 24 Este 0 -- -- 93
2020-03-15 07:00:00 9.3 10 Este 24 Este 0 -- -- 93
2020-03-15 06:00:00 9.5 9 Este 23 Sudeste 0 -- -- 92
2020-03-15 05:00:00 9.6 8 Este 21 Este 0 -- -- 92
2020-03-15 04:00:00 9.3 9 Este 24 Este 0 -- -- 90
2020-03-15 03:00:00 8.9 5 Este 18 Este 0 -- -- 89
2020-03-15 02:00:00 9.3 8 Este 17 Este 0 -- -- 85
2020-03-15 01:00:00 10.1 8 Este 19 Este 0 -- -- 78
2020-03-15 00:00:00 10.2 11 Nordeste 18 Nordeste 0 -- -- 76
2020-03-14 23:00:00 11.2 3 Sudeste 12 Sur 0 -- -- 71
2020-03-14 22:00:00 12.1 4 Sudeste 10 Sur 0 -- -- 66
2020-03-14 21:00:00 13.8 2 Sudeste 9 Sudeste 0 -- -- 61
2020-03-14 20:00:00 16.2 2 Sudeste 12 Sudeste 0 -- -- 53
2020-03-14 19:00:00 19.5 7 Sudeste 14 Sudeste 0 -- -- 42
2020-03-14 18:00:00 23.9 2 Este 8 Noroeste 0 -- -- 32
2020-03-14 17:00:00 23.4 6 Noroeste 10 Noroeste 0 -- -- 33
2020-03-14 16:00:00 21.8 0 Calma 10 Este 0 -- -- 34
2020-03-14 15:00:00 24.4 3 Oeste 13 Sudoeste 0 -- -- 35
2020-03-14 14:00:00 22.9 5 Oeste 13 Este 0 -- -- 40
2020-03-14 13:00:00 23.1 6 Nordeste 11 Nordeste 0 -- -- 40
2020-03-14 12:00:00 19.9 5 Sudeste 9 Sudeste 0 -- -- 47
2020-03-14 11:00:00 18.3 2 Este 11 Nordeste 0 -- -- 51
2020-03-14 10:00:00 14.5 8 Nordeste 13 Nordeste 0 -- -- 63
2020-03-14 09:00:00 10.1 6 Nordeste 10 Este 0 -- -- 82
2020-03-14 08:00:00 6 3 Este 9 Este 0 -- -- 91
2020-03-14 07:00:00 6.2 4 Este 9 Este 0 -- -- 90
2020-03-14 06:00:00 6.7 6 Este 14 Este 0 -- -- 89
2020-03-14 05:00:00 7.3 8 Este 13 Nordeste 0 -- -- 87
2020-03-14 04:00:00 7.3 10 Este 14 Este 0 -- -- 87
2020-03-14 03:00:00 7.6 8 Nordeste 15 Nordeste 0 -- -- 86
2020-03-14 02:00:00 8.4 8 Nordeste 15 Este 0 -- -- 85
2020-03-14 01:00:00 9.3 6 Este 18 Este 0 -- -- 83
2020-03-14 00:00:00 9.8 9 Este 24 Este 0 -- -- 80
2020-03-13 23:00:00 10.7 13 Este 25 Este 0 -- -- 77
2020-03-13 22:00:00 11.8 13 Este 23 Este 0 -- -- 72
2020-03-13 21:00:00 13.4 17 Este 31 Nordeste 0 -- -- 65
2020-03-13 20:00:00 15.4 18 Nordeste 33 Nordeste 0 -- -- 57
2020-03-13 19:00:00 18.1 19 Este 32 Este 0 -- -- 49
2020-03-13 18:00:00 20.3 19 Este 30 Este 0 -- -- 43
2020-03-13 17:00:00 22.4 18 Este 31 Este 0 -- -- 38
2020-03-13 16:00:00 23.5 15 Nordeste 31 Nordeste 0 -- -- 35
2020-03-13 15:00:00 22.4 15 Este 32 Este 0 -- -- 36
2020-03-13 14:00:00 21.1 14 Este 27 Este 0 -- -- 40
2020-03-13 13:00:00 19.8 14 Este 32 Este 0 -- -- 43
2020-03-13 12:00:00 18.9 12 Este 26 Este 0 -- -- 45
2020-03-13 11:00:00 16.7 14 Este 27 Nordeste 0 -- -- 54
2020-03-13 10:00:00 14.9 8 Este 23 Este 0 -- -- 61
2020-03-13 09:00:00 12.9 7 Este 14 Sudeste 0 -- -- 66
2020-03-13 08:00:00 10.4 7 Este 15 Este 0 -- -- 70
2020-03-13 07:00:00 11.4 0 Calma 6 Sur 0 -- -- 68
2020-03-13 06:00:00 12.2 3 Sur 13 Sudoeste 0 -- -- 64
2020-03-13 05:00:00 10.8 4 Sudoeste 9 Sudoeste 0 -- -- 66
2020-03-13 04:00:00 11.7 4 Sudoeste 8 Sudoeste 0 -- -- 59
2020-03-13 03:00:00 12 4 Sudoeste 15 Sudoeste 0 -- -- 59
2020-03-13 02:00:00 13 4 Sudoeste 13 Sudoeste 0 -- -- 56
2020-03-13 01:00:00 13.5 5 Sudoeste 12 Sudoeste 0 -- -- 57
2020-03-13 00:00:00 14.1 3 Oeste 8 Sudoeste 0 -- -- 57
2020-03-12 23:00:00 15.5 5 Sudoeste 10 Sudoeste 0 -- -- 51
2020-03-12 22:00:00 17.4 8 Oeste 12 Oeste 0 -- -- 45
2020-03-12 21:00:00 18.6 6 Sudoeste 11 Nordeste 0 -- -- 41
2020-03-12 20:00:00 21 6 Nordeste 11 Nordeste 0 -- -- 35
2020-03-12 19:00:00 25.2 4 Norte 21 Norte 0 -- -- 26
2020-03-12 18:00:00 29.8 4 Nordeste 10 Nordeste 0 -- -- 22
2020-03-12 17:00:00 30.1 0 Calma 8 Oeste 0 -- -- 21
2020-03-12 16:00:00 31.1 4 Nordeste 14 Nordeste 0 -- -- 21
2020-03-12 15:00:00 29.4 7 Nordeste 13 Nordeste 0 -- -- 24
2020-03-12 14:00:00 29.2 6 Norte 18 Nordeste 0 -- -- 25
2020-03-12 13:00:00 27.2 11 Nordeste 18 Nordeste 0 -- -- 27
2020-03-12 12:00:00 24.4 11 Nordeste 19 Este 0 -- -- 35
2020-03-12 11:00:00 21.1 12 Nordeste 17 Nordeste 0 -- -- 44
2020-03-12 10:00:00 17 10 Nordeste 18 Este 0 -- -- 53
2020-03-12 09:00:00 13.6 9 Nordeste 14 Nordeste 0 -- -- 63
2020-03-12 08:00:00 8.3 8 Nordeste 10 Nordeste 0 -- -- 77
2020-03-12 07:00:00 7.9 8 Nordeste 15 Este 0 -- -- 77
2020-03-12 06:00:00 8.4 9 Este 14 Este 0 -- -- 75
2020-03-12 05:00:00 8.4 8 Este 12 Este 0 -- -- 73
2020-03-12 04:00:00 8.9 5 Nordeste 13 Sudeste 0 -- -- 69
2020-03-12 03:00:00 9.4 5 Este 9 Este 0 -- -- 69
2020-03-12 02:00:00 10.5 3 Sudeste 7 Nordeste 0 -- -- 63
2020-03-12 01:00:00 11.8 2 Este 13 Sudeste 0 -- -- 57
2020-03-12 00:00:00 12 6 Sudeste 14 Sudeste 0 -- -- 57
2020-03-11 23:00:00 13.1 6 Sudeste 15 Sudeste 0 -- -- 55
2020-03-11 22:00:00 14.5 3 Sudeste 9 Sudeste 0 -- -- 51
2020-03-11 21:00:00 16.9 3 Sudeste 8 Sur 0 -- -- 43
2020-03-11 20:00:00 20.1 3 Norte 6 Norte 0 -- -- 35
2020-03-11 19:00:00 23.2 3 Norte 8 Norte 0 -- -- 30
2020-03-11 18:00:00 27.4 6 Noroeste 13 Noroeste 0 -- -- 23
2020-03-11 17:00:00 30.8 4 Nordeste 14 Nordeste 0 -- -- 19
2020-03-11 16:00:00 30.6 6 Nordeste 14 Norte 0 -- -- 19
2020-03-11 15:00:00 30.5 6 Noroeste 16 Norte 0 -- -- 21
2020-03-11 14:00:00 27.8 6 Noroeste 12 Oeste 0 -- -- 26
2020-03-11 13:00:00 27.1 6 Noroeste 11 Oeste 0 -- -- 28
2020-03-11 12:00:00 25.4 3 Oeste 8 Noroeste 0 -- -- 31
2020-03-11 11:00:00 24.3 2 Nordeste 5 Norte 0 -- -- 33
2020-03-11 10:00:00 20 0 Calma 3 Nordeste 0 -- -- 40
2020-03-11 09:00:00 10.7 0 Calma 4 Sudeste 0 -- -- 66
2020-03-11 08:00:00 5.5 0 Calma 3 Sudoeste 0 -- -- 77
2020-03-11 07:00:00 5.4 0 Calma 7 Sudoeste 0 -- -- 77
2020-03-11 06:00:00 5.8 0 Calma 4 Sudoeste 0 -- -- 77
2020-03-11 05:00:00 6.7 3 Sur 5 Sudoeste 0 -- -- 73
2020-03-11 04:00:00 6.9 4 Sudoeste 7 Sudoeste 0 -- -- 73
2020-03-11 03:00:00 8.1 0 Calma 11 Sudeste 0 -- -- 67
2020-03-11 02:00:00 8.2 0 Calma 7 Sur 0 -- -- 68
2020-03-11 01:00:00 8.3 0 Calma 9 Sudeste 0 -- -- 66
2020-03-11 00:00:00 10.8 3 Sur 6 Sudeste 0 -- -- 57
2020-03-10 23:00:00 11.6 4 Sudoeste 10 Sudoeste 0 -- -- 55
2020-03-10 22:00:00 12.4 7 Oeste 12 Sudoeste 0 -- -- 53
2020-03-10 21:00:00 14.6 8 Oeste 13 Oeste 0 -- -- 44
2020-03-10 20:00:00 16.6 8 Oeste 12 Oeste 0 -- -- 38
2020-03-10 19:00:00 20.8 10 Oeste 21 Oeste 0 -- -- 30
2020-03-10 18:00:00 23.1 14 Oeste 21 Oeste 0 -- -- 27
2020-03-10 17:00:00 24.8 13 Noroeste 24 Oeste 0 -- -- 25
2020-03-10 16:00:00 24.9 13 Oeste 24 Noroeste 0 -- -- 25
2020-03-10 15:00:00 23.8 13 Noroeste 25 Oeste 0 -- -- 27
2020-03-10 14:00:00 20.1 12 Oeste 27 Sudoeste 0 -- -- 31
2020-03-10 13:00:00 17.7 12 Oeste 22 Oeste 0 -- -- 34
2020-03-10 12:00:00 16.5 11 Oeste 20 Oeste 0 -- -- 35
2020-03-10 11:00:00 14.8 8 Oeste 15 Oeste 0 -- -- 39
2020-03-10 10:00:00 12.3 9 Oeste 15 Oeste 0 -- -- 46
2020-03-10 09:00:00 8.1 4 Oeste 6 Sur 0 -- -- 59
2020-03-10 08:00:00 3.1 3 Sudoeste 8 Sur 0 -- -- 71
2020-03-10 07:00:00 3.3 2 Sur 8 Sudoeste 0 -- -- 69
2020-03-10 06:00:00 4.1 5 Sur 12 Oeste 0 -- -- 64
2020-03-10 05:00:00 5.6 8 Oeste 14 Oeste 0 -- -- 60
2020-03-10 04:00:00 6.5 7 Oeste 10 Oeste 0 -- -- 58
2020-03-10 03:00:00 7 3 Oeste 8 Norte 0 -- -- 56
2020-03-10 02:00:00 9 4 Norte 19 Noroeste 0 -- -- 51
2020-03-10 01:00:00 8.4 6 Noroeste 12 Noroeste 0 -- -- 53
2020-03-10 00:00:00 9.5 4 Noroeste 13 Norte 0 -- -- 49
2020-03-09 23:00:00 10.1 7 Norte 20 Norte 0 -- -- 48
2020-03-09 22:00:00 10.5 5 Noroeste 19 Noroeste 0 -- -- 44
2020-03-09 21:00:00 12.2 12 Noroeste 23 Noroeste 0 -- -- 40
2020-03-09 20:00:00 13.4 11 Noroeste 21 Noroeste 0 -- -- 38
2020-03-09 19:00:00 15.2 16 Noroeste 30 Noroeste 0 -- -- 34
2020-03-09 18:00:00 17.5 16 Oeste 30 Noroeste 0 -- -- 31
2020-03-09 17:00:00 18.7 19 Noroeste 34 Noroeste 0 -- -- 28
2020-03-09 16:00:00 18.9 19 Noroeste 35 Oeste 0 -- -- 28
2020-03-09 15:00:00 17.5 20 Oeste 32 Oeste 0 -- -- 33
2020-03-09 14:00:00 16.2 19 Oeste 36 Oeste 0 -- -- 36
2020-03-09 13:00:00 15.7 17 Oeste 31 Oeste 0 -- -- 40
2020-03-09 12:00:00 14.5 17 Noroeste 29 Oeste 0 -- -- 47
2020-03-09 11:00:00 11.7 18 Oeste 28 Oeste 0 -- -- 57
2020-03-09 10:00:00 9.7 17 Oeste 25 Oeste 0 -- -- 68
2020-03-09 09:00:00 7 10 Oeste 16 Oeste 0 -- -- 80
2020-03-09 08:00:00 4.4 10 Oeste 17 Oeste 0 -- -- 84
2020-03-09 07:00:00 4.9 10 Oeste 17 Oeste 0 -- -- 81
2020-03-09 06:00:00 5.7 12 Oeste 23 Oeste 0 -- -- 80
2020-03-09 05:00:00 5.4 8 Sudoeste 18 Oeste 0 -- -- 79
2020-03-09 04:00:00 5.4 9 Oeste 15 Oeste 0 -- -- 77
2020-03-09 03:00:00 6.2 10 Oeste 19 Oeste 0 -- -- 74
2020-03-09 02:00:00 7.5 15 Oeste 22 Oeste 0 -- -- 69
2020-03-09 01:00:00 8.8 12 Oeste 21 Oeste 0 -- -- 63
2020-03-09 00:00:00 10.1 12 Oeste 20 Oeste 0 -- -- 56
2020-03-08 23:00:00 11.5 12 Oeste 23 Oeste 0 -- -- 51
2020-03-08 22:00:00 12.1 11 Oeste 22 Oeste 0 -- -- 44
2020-03-08 21:00:00 13.2 9 Oeste 17 Noroeste 0 -- -- 37
2020-03-08 20:00:00 14.5 10 Noroeste 21 Noroeste 0 -- -- 36
2020-03-08 19:00:00 15.7 11 Oeste 27 Oeste 0 -- -- 35
2020-03-08 18:00:00 17 20 Oeste 30 Oeste 0 -- -- 33
2020-03-08 17:00:00 17.2 18 Oeste 32 Oeste 0 -- -- 31
2020-03-08 16:00:00 18.7 20 Oeste 36 Oeste 0 -- -- 27
2020-03-08 15:00:00 18.3 22 Oeste 35 Oeste 0 -- -- 28
2020-03-08 14:00:00 17.7 18 Oeste 33 Oeste 0 -- -- 31
2020-03-08 13:00:00 15.8 21 Oeste 31 Oeste 0 -- -- 39
2020-03-08 12:00:00 14.5 17 Oeste 25 Oeste 0 -- -- 45
2020-03-08 11:00:00 12.7 9 Oeste 16 Oeste 0 -- -- 51
2020-03-08 10:00:00 10.1 8 Oeste 12 Oeste 0 -- -- 58
2020-03-08 09:00:00 4.3 3 Sudoeste 9 Sur 0 -- -- 78
2020-03-08 08:00:00 -0.1 3 Sudoeste 6 Sur 0 -- -- 88
2020-03-08 07:00:00 -0.1 3 Oeste 5 Sudoeste 0 -- -- 85
2020-03-08 06:00:00 1.8 3 Sudoeste 6 Oeste 0 -- -- 82
2020-03-08 05:00:00 1.9 3 Sudoeste 6 Sudoeste 0 -- -- 80
2020-03-08 04:00:00 1.5 3 Oeste 6 Sudoeste 0 -- -- 82
2020-03-08 03:00:00 2.5 3 Oeste 12 Sudoeste 0 -- -- 76
2020-03-08 02:00:00 4.5 8 Oeste 13 Oeste 0 -- -- 73
2020-03-08 01:00:00 4.7 9 Oeste 12 Oeste 0 -- -- 72
2020-03-08 00:00:00 5.4 5 Oeste 10 Oeste 0 -- -- 68
2020-03-07 23:00:00 6 9 Oeste 12 Oeste 0 -- -- 67
2020-03-07 22:00:00 6.8 7 Oeste 13 Sudoeste 0 -- -- 64
2020-03-07 21:00:00 9.7 4 Sudoeste 9 Noroeste 0 -- -- 55
2020-03-07 20:00:00 10.8 6 Noroeste 23 Oeste 0 -- -- 52
2020-03-07 19:00:00 13.1 13 Oeste 36 Oeste 0 -- -- 44
2020-03-07 18:00:00 16 22 Noroeste 36 Noroeste 0 -- -- 37
2020-03-07 17:00:00 16.6 22 Noroeste 38 Noroeste 0 -- -- 36
2020-03-07 16:00:00 16.6 16 Noroeste 29 Noroeste 0 -- -- 36
2020-03-07 15:00:00 16.7 14 Noroeste 32 Noroeste 0 -- -- 35
2020-03-07 14:00:00 14.8 17 Noroeste 32 Noroeste 0 -- -- 38
2020-03-07 13:00:00 13.5 17 Noroeste 31 Oeste 0 -- -- 38
2020-03-07 12:00:00 10 19 Oeste 27 Oeste 0 -- -- 44
2020-03-07 11:00:00 8.5 14 Oeste 22 Oeste 0 -- -- 48
2020-03-07 10:00:00 6 13 Oeste 21 Oeste 0 -- -- 56
2020-03-07 09:00:00 2.8 9 Oeste 13 Sudoeste 0 -- -- 68
2020-03-07 08:00:00 -1 3 Sudoeste 9 Sur 0 -- -- 79
2020-03-07 07:00:00 0.2 3 Sudoeste 14 Oeste 0 -- -- 72
2020-03-07 06:00:00 0.5 10 Oeste 18 Oeste 0 -- -- 70
2020-03-07 05:00:00 1.8 10 Oeste 19 Oeste 0 -- -- 64
2020-03-07 04:00:00 1.8 9 Oeste 14 Sudoeste 0 -- -- 66
2020-03-07 03:00:00 2.5 8 Oeste 16 Sudoeste 0 -- -- 65
2020-03-07 02:00:00 3.1 7 Oeste 13 Oeste 0 -- -- 63
2020-03-07 01:00:00 3.8 8 Oeste 17 Noroeste 0 -- -- 55
2020-03-07 00:00:00 5.2 9 Noroeste 21 Noroeste 0 -- -- 47
2020-03-06 23:00:00 3.9 8 Oeste 19 Oeste 0 -- -- 53
2020-03-06 22:00:00 6.7 11 Noroeste 24 Noroeste 0 -- -- 45
2020-03-06 21:00:00 7.1 11 Oeste 18 Oeste 0 -- -- 44
2020-03-06 20:00:00 8.3 11 Noroeste 33 Noroeste 0 -- -- 39
2020-03-06 19:00:00 10.4 19 Noroeste 50 Noroeste 0 -- -- 33
2020-03-06 18:00:00 11.5 30 Noroeste 50 Oeste 0 -- -- 35
2020-03-06 17:00:00 11.5 35 Noroeste 59 Noroeste 0 -- -- 35
2020-03-06 16:00:00 12.1 36 Noroeste 61 Noroeste 0 -- -- 34
2020-03-06 15:00:00 13 36 Oeste 62 Noroeste 0 -- -- 32
2020-03-06 14:00:00 10.8 33 Oeste 61 Oeste 0 -- -- 40
2020-03-06 13:00:00 10.5 38 Noroeste 59 Oeste 0 -- -- 43
2020-03-06 12:00:00 10.6 31 Noroeste 57 Oeste 0.4 -- -- 54
2020-03-06 11:00:00 8 33 Oeste 51 Oeste 0 -- -- 69
2020-03-06 10:00:00 6.4 31 Oeste 47 Oeste 0 -- -- 81
2020-03-06 09:00:00 4.9 25 Oeste 42 Sudoeste 0 -- -- 86
2020-03-06 08:00:00 3.8 22 Sudoeste 38 Sudoeste 0 -- -- 88
2020-03-06 07:00:00 3.8 18 Sudoeste 36 Sudoeste 0 -- -- 86
2020-03-06 06:00:00 4 21 Sudoeste 34 Sudoeste 0 -- -- 87
2020-03-06 05:00:00 4.2 13 Oeste 29 Oeste 0 -- -- 86
2020-03-06 04:00:00 5.1 19 Oeste 31 Oeste 0 -- -- 85
2020-03-06 03:00:00 5.8 21 Oeste 43 Oeste 0 -- -- 84
2020-03-06 02:00:00 7.5 24 Oeste 35 Oeste 0 -- -- 80
2020-03-06 01:00:00 7.5 21 Oeste 35 Sudoeste 0 -- -- 79
2020-03-06 00:00:00 7.9 23 Sudoeste 41 Oeste 0 -- -- 75
2020-03-05 23:00:00 8.5 22 Oeste 44 Sudoeste 0 -- -- 72
2020-03-05 22:00:00 9.1 19 Sudoeste 41 Oeste 0 -- -- 69
2020-03-05 21:00:00 9.9 21 Oeste 39 Oeste 0 -- -- 65
2020-03-05 20:00:00 11.1 19 Sudoeste 40 Oeste 0 -- -- 61
2020-03-05 19:00:00 13.5 22 Oeste 47 Sudoeste 0 -- -- 49
2020-03-05 18:00:00 14.7 32 Oeste 54 Oeste 0 -- -- 50
2020-03-05 17:00:00 15.5 33 Oeste 57 Oeste 0 -- -- 42
2020-03-05 16:00:00 14.8 39 Oeste 58 Oeste 0 -- -- 54
2020-03-05 15:00:00 12.9 32 Oeste 58 Oeste 0 -- -- 76
2020-03-05 14:00:00 12.8 26 Oeste 58 Oeste 0 -- -- 71
2020-03-05 13:00:00 13.1 33 Oeste 56 Oeste 0 -- -- 67
2020-03-05 12:00:00 13 31 Oeste 57 Oeste 0 -- -- 66
2020-03-05 11:00:00 13.9 37 Sudoeste 63 Sudoeste 0 -- -- 65
2020-03-05 10:00:00 12.5 27 Sudoeste 48 Oeste 0 -- -- 75
2020-03-05 09:00:00 10.5 23 Oeste 37 Oeste 0 -- -- 84
2020-03-05 08:00:00 10 22 Sudoeste 37 Sudoeste 0 -- -- 86
2020-03-05 07:00:00 8.9 22 Sudoeste 36 Oeste 0 -- -- 87
2020-03-05 06:00:00 9.8 18 Sudoeste 33 Oeste 0 -- -- 82
2020-03-05 05:00:00 10 17 Sudoeste 30 Sudoeste 0 -- -- 78
2020-03-05 04:00:00 10.2 15 Sudoeste 32 Oeste 0 -- -- 78
2020-03-05 03:00:00 10.7 17 Oeste 30 Sudoeste 0 -- -- 75
2020-03-05 02:00:00 10.9 17 Sudoeste 29 Sudoeste 0 -- -- 72
2020-03-05 01:00:00 11.2 14 Oeste 27 Sudoeste 0 -- -- 70
2020-03-05 00:00:00 11.1 15 Oeste 24 Oeste 0 -- -- 69
2020-03-04 23:00:00 11.5 12 Oeste 24 Sudoeste 0 -- -- 68
2020-03-04 22:00:00 11 15 Sudoeste 31 Sudoeste 0 -- -- 69
2020-03-04 21:00:00 11.9 18 Sudoeste 31 Oeste 0 -- -- 67
2020-03-04 20:00:00 12.5 19 Sudoeste 31 Sudoeste 0 -- -- 65
2020-03-04 19:00:00 13.2 21 Sudoeste 35 Sudoeste 0 -- -- 64
2020-03-04 18:00:00 14.5 18 Sudoeste 37 Oeste 0 -- -- 57
2020-03-04 17:00:00 14.7 21 Sudoeste 37 Oeste 0 -- -- 56
2020-03-04 16:00:00 15.1 21 Oeste 33 Oeste 0 -- -- 55
2020-03-04 15:00:00 14.4 22 Oeste 36 Oeste 0 -- -- 58
2020-03-04 14:00:00 14 22 Oeste 37 Oeste 0 -- -- 62
2020-03-04 13:00:00 13.9 24 Oeste 40 Oeste 0 -- -- 62
2020-03-04 12:00:00 13.9 23 Oeste 38 Oeste 0 -- -- 68
2020-03-04 11:00:00 13.5 22 Oeste 41 Oeste 0 -- -- 76
2020-03-04 10:00:00 12.2 23 Oeste 38 Oeste 0 -- -- 84
2020-03-04 09:00:00 11.5 23 Sudoeste 35 Sudoeste 0 -- -- 86
2020-03-04 08:00:00 11.1 20 Oeste 35 Oeste 0 -- -- 88
2020-03-04 07:00:00 11.2 17 Sudoeste 38 Sudoeste 0 -- -- 88
2020-03-04 06:00:00 11.2 20 Sudoeste 37 Oeste 0 -- -- 88
2020-03-04 05:00:00 11.2 25 Oeste 44 Oeste 0 -- -- 88
2020-03-04 04:00:00 11.2 23 Oeste 44 Sudoeste 0 -- -- 88
2020-03-04 03:00:00 11.1 25 Oeste 44 Sudoeste 0 -- -- 88
2020-03-04 02:00:00 11.4 24 Oeste 44 Sudoeste 0 -- -- 86
2020-03-04 01:00:00 11.7 23 Sudoeste 45 Oeste 0 -- -- 85
2020-03-04 00:00:00 12 23 Sudoeste 46 Sudoeste 0 -- -- 84
2020-03-03 23:00:00 12 27 Sudoeste 48 Sudoeste 0 -- -- 83
2020-03-03 22:00:00 11.8 25 Sudoeste 51 Sudoeste 0 -- -- 82
2020-03-03 21:00:00 11.8 26 Sudoeste 48 Sudoeste 0 -- -- 79
2020-03-03 20:00:00 12 27 Sudoeste 54 Oeste 0 -- -- 77
2020-03-03 19:00:00 12.2 34 Oeste 59 Oeste 0 -- -- 75
2020-03-03 18:00:00 12.3 38 Oeste 62 Oeste 0 -- -- 73
2020-03-03 17:00:00 12.5 39 Oeste 65 Oeste 0 -- -- 71
2020-03-03 16:00:00 12.1 39 Oeste 71 Oeste 0 -- -- 70
2020-03-03 15:00:00 12 34 Sudoeste 70 Oeste 0 -- -- 68
2020-03-03 14:00:00 11.9 35 Sudoeste 68 Sudoeste 0 -- -- 65
2020-03-03 13:00:00 10.7 37 Sudoeste 64 Oeste 0 -- -- 64
2020-03-03 12:00:00 10.7 38 Sudoeste 66 Oeste 0 -- -- 65
2020-03-03 11:00:00 8.9 33 Sudoeste 52 Oeste 0 -- -- 71
2020-03-03 10:00:00 6.8 28 Sudoeste 48 Sudoeste 0 -- -- 80
2020-03-03 09:00:00 5.7 29 Oeste 46 Oeste 0 -- -- 82
2020-03-03 08:00:00 5.5 24 Oeste 41 Oeste 0 -- -- 81
2020-03-03 07:00:00 5.2 20 Sudoeste 39 Sudoeste 0 -- -- 81
2020-03-03 06:00:00 5 23 Oeste 37 Oeste 0 -- -- 77
2020-03-03 05:00:00 4.1 21 Sudoeste 36 Oeste 0 -- -- 76
2020-03-03 04:00:00 4.2 19 Oeste 35 Sudoeste 0 -- -- 75
2020-03-03 03:00:00 4.6 19 Sudoeste 33 Sudoeste 0 -- -- 75
2020-03-03 02:00:00 4.7 18 Sudoeste 32 Sudoeste 0 -- -- 78
2020-03-03 01:00:00 4.9 19 Oeste 32 Oeste 0 -- -- 75
2020-03-03 00:00:00 3.9 8 Oeste 27 Oeste 0 -- -- 68
2020-03-02 23:00:00 4.6 14 Oeste 23 Oeste 0 -- -- 64
2020-03-02 22:00:00 4.6 12 Oeste 18 Oeste 0 -- -- 67
2020-03-02 21:00:00 6.2 10 Oeste 37 Oeste 0 -- -- 56
2020-03-02 20:00:00 7.3 20 Oeste 44 Noroeste 0 -- -- 56
2020-03-02 19:00:00 8.1 23 Noroeste 54 Noroeste 0 -- -- 53
2020-03-02 18:00:00 8.5 27 Noroeste 54 Noroeste 0.2 -- -- 62
2020-03-02 17:00:00 8.4 32 Noroeste 76 Oeste 0 -- -- 70
2020-03-02 16:00:00 10.2 33 Noroeste 77 Oeste 0 -- -- 68
2020-03-02 15:00:00 12.6 48 Oeste 71 Oeste 0 -- -- 48
2020-03-02 14:00:00 13.1 43 Oeste 76 Oeste 0 -- -- 45
2020-03-02 13:00:00 14.1 49 Oeste 78 Oeste 0 -- -- 43
2020-03-02 12:00:00 13.5 57 Oeste 80 Oeste 0 -- -- 43
2020-03-02 11:00:00 13.3 50 Oeste 80 Oeste 0 -- -- 58
2020-03-02 10:00:00 11 39 Oeste 72 Oeste 1.2 -- -- 92
2020-03-02 09:00:00 12 42 Sudoeste 84 Sudoeste 0 -- -- 76
2020-03-02 08:00:00 11.7 46 Sudoeste 74 Sudoeste 0 -- -- 72
2020-03-02 07:00:00 11.4 50 Sudoeste 74 Sudoeste 0 -- -- 74
2020-03-02 06:00:00 11.1 49 Sudoeste 80 Sudoeste 0 -- -- 78
2020-03-02 05:00:00 10.8 36 Sudoeste 58 Sudoeste 0 -- -- 78
2020-03-02 04:00:00 10.8 40 Sudoeste 69 Sudoeste 0 -- -- 79
2020-03-02 03:00:00 12.1 48 Sudoeste 75 Sudoeste 0 -- -- 72
2020-03-02 02:00:00 11.9 42 Sudoeste 60 Sudoeste 0 -- -- 81
2020-03-02 01:00:00 12 39 Sudoeste 58 Sudoeste 0 -- -- 77
2020-03-02 00:00:00 11.6 31 Sudoeste 55 Sudoeste 0 -- -- 77
2020-03-01 23:00:00 11.3 35 Sudoeste 53 Sudoeste 0 -- -- 76
2020-03-01 22:00:00 11.1 32 Sudoeste 49 Sudoeste 0 -- -- 74
2020-03-01 21:00:00 10.9 29 Sudoeste 44 Sudoeste 0 -- -- 72
2020-03-01 20:00:00 11.2 24 Sudoeste 44 Sudoeste 0 -- -- 71
2020-03-01 19:00:00 12.2 28 Sudoeste 49 Sudoeste 0 -- -- 66
2020-03-01 18:00:00 13.3 30 Sudoeste 50 Sudoeste 0 -- -- 63
2020-03-01 17:00:00 14.4 33 Sudoeste 53 Sudoeste 0 -- -- 59
2020-03-01 16:00:00 14.3 30 Sudoeste 56 Oeste 0 -- -- 60
2020-03-01 15:00:00 14.5 29 Sudoeste 50 Sudoeste 0 -- -- 58
2020-03-01 14:00:00 12.9 33 Oeste 53 Oeste 0 -- -- 63
2020-03-01 13:00:00 12.5 38 Sudoeste 61 Sudoeste 0 -- -- 65
2020-03-01 12:00:00 11.8 36 Sudoeste 62 Sudoeste 0 -- -- 70
2020-03-01 11:00:00 11.2 32 Sudoeste 54 Sudoeste 0 -- -- 73
2020-03-01 10:00:00 9.9 24 Sudoeste 46 Sudoeste 0 -- -- 79
2020-03-01 09:00:00 8.9 23 Sudoeste 41 Oeste 0 -- -- 84
2020-03-01 08:00:00 8.5 28 Oeste 43 Sudoeste 0 -- -- 86
2020-03-01 07:00:00 8.2 21 Sudoeste 41 Oeste 0 -- -- 87
2020-03-01 06:00:00 8.2 18 Sudoeste 32 Sudoeste 0.2 -- -- 89
2020-03-01 05:00:00 8.3 22 Sudoeste 42 Oeste 0 -- -- 86
2020-03-01 04:00:00 9.2 25 Oeste 39 Oeste 0 -- -- 77
2020-03-01 03:00:00 10 24 Oeste 40 Oeste 0 -- -- 85
2020-03-01 02:00:00 10.2 26 Oeste 41 Oeste 0 -- -- 87
2020-03-01 01:00:00 10.3 23 Oeste 40 Oeste 0 -- -- 84
2020-03-01 00:00:00 10.4 19 Sudoeste 58 Oeste 0 -- -- 84
2020-02-29 23:00:00 10.8 30 Oeste 46 Sudoeste 0 -- -- 82
2020-02-29 22:00:00 11.7 22 Sudoeste 49 Sudoeste 0 -- -- 74
2020-02-29 21:00:00 12.4 24 Sudoeste 44 Sudoeste 0 -- -- 69
2020-02-29 20:00:00 13 28 Oeste 49 Sudoeste 0 -- -- 69
2020-02-29 19:00:00 13.6 33 Oeste 50 Oeste 0 -- -- 63
2020-02-29 18:00:00 14.1 31 Oeste 52 Oeste 0 -- -- 60
2020-02-29 17:00:00 14.4 33 Oeste 53 Oeste 0 -- -- 58
2020-02-29 16:00:00 14.7 27 Oeste 48 Sudoeste 0 -- -- 50
2020-02-29 15:00:00 15.4 27 Sudoeste 48 Sudoeste 0 -- -- 47
2020-02-29 14:00:00 15.3 31 Oeste 54 Oeste 0 -- -- 49
2020-02-29 13:00:00 14.2 33 Oeste 53 Oeste 0 -- -- 50
2020-02-29 12:00:00 14 31 Sudoeste 52 Oeste 0 -- -- 49
2020-02-29 11:00:00 12.9 31 Sudoeste 48 Sudoeste 0 -- -- 48
2020-02-29 10:00:00 11.3 24 Sudoeste 40 Sudoeste 0 -- -- 56
2020-02-29 09:00:00 8.6 19 Sudoeste 30 Sudoeste 0 -- -- 65
2020-02-29 08:00:00 7 13 Sudoeste 29 Sudoeste 0 -- -- 69
2020-02-29 07:00:00 7.5 17 Sudoeste 26 Sudoeste 0 -- -- 67
2020-02-29 06:00:00 7 9 Sudoeste 21 Sudoeste 0 -- -- 70
2020-02-29 05:00:00 6.7 8 Sudoeste 18 Sudoeste 0 -- -- 66
2020-02-29 04:00:00 7.5 7 Sudoeste 11 Sudoeste 0 -- -- 61
2020-02-29 03:00:00 8 4 Sudoeste 16 Sudoeste 0 -- -- 56
2020-02-29 02:00:00 9.4 9 Sudoeste 19 Sur 0 -- -- 49
2020-02-29 01:00:00 9.1 6 Sudoeste 19 Sudoeste 0 -- -- 47
2020-02-29 00:00:00 9.2 8 Sur 16 Sur 0 -- -- 46